Terminal Aerodrome Forecast
Issued by NWS

Home | Current Version | Previous Version | Text Only | Print | Product List | Glossary On
Versions: 1 2 3 4 5 6 7 8 9 10 11 12 13 14 15 16 17 18 19 20 21 22 23 24 25 26 27 28 29 30 31
000
FTAK31 PANC 202340
TAFAHO
TAF
PAHO 202340Z 2100/2124 07012G22KT P6SM -RA BKN040 OVC060
      WS020/09045KT
     FM211000 07009KT P6SM -SHRA SCT040 OVC060=

USA.gov is the U.S. government's official web portal to all federal, state and local government web resources and services.